sensor_id;sensor_type;location;lat;lon;timestamp;P1;durP1;ratioP1;P2;durP2;ratioP2
52067;SDS011;60237;52.338;21.228;2023-02-12T00:00:07;34.15;;;4.40;;
52067;SDS011;60237;52.338;21.228;2023-02-12T00:02:40;41.17;;;5.45;;
52067;SDS011;60237;52.338;21.228;2023-02-12T00:05:06;20.90;;;2.88;;
52067;SDS011;60237;52.338;21.228;2023-02-12T00:07:33;33.55;;;3.72;;
52067;SDS011;60237;52.338;21.228;2023-02-12T00:09:59;50.60;;;4.68;;
52067;SDS011;60237;52.338;21.228;2023-02-12T00:12:26;34.25;;;4.20;;
52067;SDS011;60237;52.338;21.228;2023-02-12T00:14:52;54.22;;;6.18;;
52067;SDS011;60237;52.338;21.228;2023-02-12T00:17:19;42.08;;;5.47;;
52067;SDS011;60237;52.338;21.228;2023-02-12T00:19:46;42.40;;;4.82;;
52067;SDS011;60237;52.338;21.228;2023-02-12T00:22:12;45.65;;;4.38;;
52067;SDS011;60237;52.338;21.228;2023-02-12T00:24:39;40.08;;;3.88;;
52067;SDS011;60237;52.338;21.228;2023-02-12T00:27:05;45.13;;;5.22;;
52067;SDS011;60237;52.338;21.228;2023-02-12T00:29:32;52.15;;;6.70;;
52067;SDS011;60237;52.338;21.228;2023-02-12T00:31:58;55.08;;;6.22;;
52067;SDS011;60237;52.338;21.228;2023-02-12T00:34:25;148.25;;;12.55;;
52067;SDS011;60237;52.338;21.228;2023-02-12T00:36:51;67.70;;;7.40;;
52067;SDS011;60237;52.338;21.228;2023-02-12T00:39:18;75.50;;;6.90;;
52067;SDS011;60237;52.338;21.228;2023-02-12T00:41:44;27.30;;;3.38;;
52067;SDS011;60237;52.338;21.228;2023-02-12T00:44:11;31.67;;;4.03;;
52067;SDS011;60237;52.338;21.228;2023-02-12T00:46:37;40.38;;;4.63;;
52067;SDS011;60237;52.338;21.228;2023-02-12T00:49:04;72.00;;;7.03;;
52067;SDS011;60237;52.338;21.228;2023-02-12T00:51:30;30.05;;;4.45;;
52067;SDS011;60237;52.338;21.228;2023-02-12T00:53:57;78.57;;;7.80;;
52067;SDS011;60237;52.338;21.228;2023-02-12T00:56:23;28.83;;;5.03;;
52067;SDS011;60237;52.338;21.228;2023-02-12T00:58:50;52.85;;;5.95;;
52067;SDS011;60237;52.338;21.228;2023-02-12T01:01:16;50.33;;;4.60;;
52067;SDS011;60237;52.338;21.228;2023-02-12T01:03:43;33.47;;;3.33;;
52067;SDS011;60237;52.338;21.228;2023-02-12T01:06:09;17.95;;;2.35;;
52067;SDS011;60237;52.338;21.228;2023-02-12T01:08:36;42.15;;;3.58;;
52067;SDS011;60237;52.338;21.228;2023-02-12T01:11:04;25.75;;;2.80;;
52067;SDS011;60237;52.338;21.228;2023-02-12T01:13:30;27.08;;;2.90;;
52067;SDS011;60237;52.338;21.228;2023-02-12T01:16:03;55.97;;;4.93;;
52067;SDS011;60237;52.338;21.228;2023-02-12T01:18:29;28.08;;;3.15;;
52067;SDS011;60237;52.338;21.228;2023-02-12T01:20:57;49.40;;;4.55;;
52067;SDS011;60237;52.338;21.228;2023-02-12T01:23:24;41.10;;;3.83;;
52067;SDS011;60237;52.338;21.228;2023-02-12T01:25:51;29.77;;;3.13;;
52067;SDS011;60237;52.338;21.228;2023-02-12T01:28:18;33.60;;;3.65;;
52067;SDS011;60237;52.338;21.228;2023-02-12T01:30:44;67.47;;;5.78;;
52067;SDS011;60237;52.338;21.228;2023-02-12T01:33:11;27.27;;;3.03;;
52067;SDS011;60237;52.338;21.228;2023-02-12T01:35:37;23.08;;;2.67;;
52067;SDS011;60237;52.338;21.228;2023-02-12T01:38:04;40.35;;;4.00;;
52067;SDS011;60237;52.338;21.228;2023-02-12T01:40:30;32.42;;;3.15;;
52067;SDS011;60237;52.338;21.228;2023-02-12T01:42:59;52.40;;;6.07;;
52067;SDS011;60237;52.338;21.228;2023-02-12T01:48:01;34.90;;;6.03;;
52067;SDS011;60237;52.338;21.228;2023-02-12T01:50:28;32.33;;;4.80;;
52067;SDS011;60237;52.338;21.228;2023-02-12T01:52:54;64.05;;;8.15;;
52067;SDS011;60237;52.338;21.228;2023-02-12T01:55:22;40.67;;;7.40;;
52067;SDS011;60237;52.338;21.228;2023-02-12T01:57:49;37.47;;;5.80;;
52067;SDS011;60237;52.338;21.228;2023-02-12T02:00:17;39.42;;;4.80;;
52067;SDS011;60237;52.338;21.228;2023-02-12T02:02:46;36.88;;;3.75;;
52067;SDS011;60237;52.338;21.228;2023-02-12T02:05:14;40.90;;;3.88;;
52067;SDS011;60237;52.338;21.228;2023-02-12T02:07:43;50.70;;;4.38;;
52067;SDS011;60237;52.338;21.228;2023-02-12T02:10:10;30.08;;;3.15;;
52067;SDS011;60237;52.338;21.228;2023-02-12T02:12:37;32.22;;;3.40;;
52067;SDS011;60237;52.338;21.228;2023-02-12T02:15:22;29.00;;;3.22;;
52067;SDS011;60237;52.338;21.228;2023-02-12T02:30:59;35.90;;;3.25;;
52067;SDS011;60237;52.338;21.228;2023-02-12T02:33:38;23.95;;;2.45;;
52067;SDS011;60237;52.338;21.228;2023-02-12T02:38:45;45.28;;;4.57;;
52067;SDS011;60237;52.338;21.228;2023-02-12T02:43:43;26.70;;;2.92;;
52067;SDS011;60237;52.338;21.228;2023-02-12T02:46:17;36.30;;;3.63;;
52067;SDS011;60237;52.338;21.228;2023-02-12T02:48:48;46.60;;;4.25;;
52067;SDS011;60237;52.338;21.228;2023-02-12T02:51:20;30.02;;;3.15;;
52067;SDS011;60237;52.338;21.228;2023-02-12T02:53:48;55.63;;;5.03;;
52067;SDS011;60237;52.338;21.228;2023-02-12T02:56:17;24.00;;;2.60;;
52067;SDS011;60237;52.338;21.228;2023-02-12T02:58:55;56.13;;;4.78;;
52067;SDS011;60237;52.338;21.228;2023-02-12T03:01:25;42.60;;;4.03;;
52067;SDS011;60237;52.338;21.228;2023-02-12T03:03:57;40.17;;;3.83;;
52067;SDS011;60237;52.338;21.228;2023-02-12T03:09:01;39.03;;;3.65;;
52067;SDS011;60237;52.338;21.228;2023-02-12T03:11:31;39.30;;;3.85;;
52067;SDS011;60237;52.338;21.228;2023-02-12T03:14:03;50.70;;;4.63;;
52067;SDS011;60237;52.338;21.228;2023-02-12T03:16:32;14.43;;;1.88;;
52067;SDS011;60237;52.338;21.228;2023-02-12T03:19:02;54.15;;;4.72;;
52067;SDS011;60237;52.338;21.228;2023-02-12T03:21:32;28.98;;;3.13;;
52067;SDS011;60237;52.338;21.228;2023-02-12T03:27:08;40.95;;;4.53;;
52067;SDS011;60237;52.338;21.228;2023-02-12T03:29:33;34.45;;;4.03;;
52067;SDS011;60237;52.338;21.228;2023-02-12T03:34:29;34.95;;;3.95;;
52067;SDS011;60237;52.338;21.228;2023-02-12T03:37:00;63.92;;;5.57;;
52067;SDS011;60237;52.338;21.228;2023-02-12T03:47:03;33.63;;;3.35;;
52067;SDS011;60237;52.338;21.228;2023-02-12T03:49:32;44.97;;;3.80;;
52067;SDS011;60237;52.338;21.228;2023-02-12T03:52:00;38.58;;;3.75;;
52067;SDS011;60237;52.338;21.228;2023-02-12T03:54:27;22.80;;;2.17;;
52067;SDS011;60237;52.338;21.228;2023-02-12T03:57:01;44.17;;;4.10;;
52067;SDS011;60237;52.338;21.228;2023-02-12T03:59:28;28.17;;;2.88;;
52067;SDS011;60237;52.338;21.228;2023-02-12T04:01:56;36.40;;;3.72;;
52067;SDS011;60237;52.338;21.228;2023-02-12T04:04:23;46.67;;;4.30;;
52067;SDS011;60237;52.338;21.228;2023-02-12T04:06:51;46.33;;;4.40;;
52067;SDS011;60237;52.338;21.228;2023-02-12T04:09:18;29.42;;;2.92;;
52067;SDS011;60237;52.338;21.228;2023-02-12T04:22:35;28.58;;;3.05;;
52067;SDS011;60237;52.338;21.228;2023-02-12T04:25:11;66.30;;;5.70;;
52067;SDS011;60237;52.338;21.228;2023-02-12T04:30:30;31.33;;;3.03;;
52067;SDS011;60237;52.338;21.228;2023-02-12T04:32:59;30.58;;;3.17;;
52067;SDS011;60237;52.338;21.228;2023-02-12T04:35:31;47.25;;;4.30;;
52067;SDS011;60237;52.338;21.228;2023-02-12T04:38:01;44.60;;;4.35;;
52067;SDS011;60237;52.338;21.228;2023-02-12T04:40:30;25.95;;;3.00;;
52067;SDS011;60237;52.338;21.228;2023-02-12T04:42:57;37.03;;;3.88;;
52067;SDS011;60237;52.338;21.228;2023-02-12T04:45:27;39.10;;;3.90;;
52067;SDS011;60237;52.338;21.228;2023-02-12T04:47:53;49.97;;;5.10;;
52067;SDS011;60237;52.338;21.228;2023-02-12T04:50:20;45.15;;;4.65;;
52067;SDS011;60237;52.338;21.228;2023-02-12T04:52:47;53.53;;;5.15;;
52067;SDS011;60237;52.338;21.228;2023-02-12T04:55:13;34.47;;;4.28;;
52067;SDS011;60237;52.338;21.228;2023-02-12T04:57:40;36.90;;;3.58;;
52067;SDS011;60237;52.338;21.228;2023-02-12T05:00:08;44.35;;;4.43;;
52067;SDS011;60237;52.338;21.228;2023-02-12T05:02:35;43.58;;;5.30;;
52067;SDS011;60237;52.338;21.228;2023-02-12T05:05:01;31.33;;;3.55;;
52067;SDS011;60237;52.338;21.228;2023-02-12T05:07:28;44.88;;;5.03;;
52067;SDS011;60237;52.338;21.228;2023-02-12T05:09:54;35.88;;;3.85;;
52067;SDS011;60237;52.338;21.228;2023-02-12T05:12:21;28.05;;;3.65;;
52067;SDS011;60237;52.338;21.228;2023-02-12T05:14:47;63.80;;;6.18;;
52067;SDS011;60237;52.338;21.228;2023-02-12T05:17:13;38.95;;;3.97;;
52067;SDS011;60237;52.338;21.228;2023-02-12T05:19:40;37.03;;;3.70;;
52067;SDS011;60237;52.338;21.228;2023-02-12T05:22:06;48.80;;;4.65;;
52067;SDS011;60237;52.338;21.228;2023-02-12T05:24:33;24.15;;;2.85;;
52067;SDS011;60237;52.338;21.228;2023-02-12T05:26:59;27.08;;;3.13;;
52067;SDS011;60237;52.338;21.228;2023-02-12T05:29:26;44.03;;;4.65;;
52067;SDS011;60237;52.338;21.228;2023-02-12T05:31:52;34.58;;;3.58;;
52067;SDS011;60237;52.338;21.228;2023-02-12T05:34:19;29.67;;;3.15;;
52067;SDS011;60237;52.338;21.228;2023-02-12T05:36:45;56.20;;;5.10;;
52067;SDS011;60237;52.338;21.228;2023-02-12T05:39:12;27.63;;;3.05;;
52067;SDS011;60237;52.338;21.228;2023-02-12T05:41:38;27.17;;;3.13;;
52067;SDS011;60237;52.338;21.228;2023-02-12T05:44:04;29.65;;;3.42;;
52067;SDS011;60237;52.338;21.228;2023-02-12T05:46:32;33.20;;;3.55;;
52067;SDS011;60237;52.338;21.228;2023-02-12T05:48:58;54.28;;;6.07;;
52067;SDS011;60237;52.338;21.228;2023-02-12T05:51:25;36.38;;;4.43;;
52067;SDS011;60237;52.338;21.228;2023-02-12T05:53:55;52.72;;;5.82;;
52067;SDS011;60237;52.338;21.228;2023-02-12T05:56:23;18.77;;;2.83;;
52067;SDS011;60237;52.338;21.228;2023-02-12T05:58:54;67.82;;;6.43;;
52067;SDS011;60237;52.338;21.228;2023-02-12T06:01:31;32.22;;;4.03;;
52067;SDS011;60237;52.338;21.228;2023-02-12T06:03:59;47.13;;;4.70;;
52067;SDS011;60237;52.338;21.228;2023-02-12T06:06:26;27.77;;;3.55;;
52067;SDS011;60237;52.338;21.228;2023-02-12T06:08:53;64.25;;;6.63;;
52067;SDS011;60237;52.338;21.228;2023-02-12T06:11:20;58.70;;;5.68;;
52067;SDS011;60237;52.338;21.228;2023-02-12T06:13:46;53.85;;;6.00;;
52067;SDS011;60237;52.338;21.228;2023-02-12T06:16:21;48.60;;;6.15;;
52067;SDS011;60237;52.338;21.228;2023-02-12T06:18:48;47.30;;;7.13;;
52067;SDS011;60237;52.338;21.228;2023-02-12T06:21:15;41.65;;;8.45;;
52067;SDS011;60237;52.338;21.228;2023-02-12T06:23:41;38.33;;;6.30;;
52067;SDS011;60237;52.338;21.228;2023-02-12T06:26:08;35.72;;;5.28;;
52067;SDS011;60237;52.338;21.228;2023-02-12T06:28:35;43.05;;;6.00;;
52067;SDS011;60237;52.338;21.228;2023-02-12T06:31:01;50.72;;;6.75;;
52067;SDS011;60237;52.338;21.228;2023-02-12T06:33:28;44.63;;;6.82;;
52067;SDS011;60237;52.338;21.228;2023-02-12T06:35:54;63.75;;;7.10;;
52067;SDS011;60237;52.338;21.228;2023-02-12T06:38:22;26.80;;;5.25;;
52067;SDS011;60237;52.338;21.228;2023-02-12T06:40:48;62.65;;;8.65;;
52067;SDS011;60237;52.338;21.228;2023-02-12T06:43:14;63.55;;;8.25;;
52067;SDS011;60237;52.338;21.228;2023-02-12T06:45:41;44.28;;;7.55;;
52067;SDS011;60237;52.338;21.228;2023-02-12T06:48:07;41.22;;;7.50;;
52067;SDS011;60237;52.338;21.228;2023-02-12T06:50:34;57.95;;;9.07;;
52067;SDS011;60237;52.338;21.228;2023-02-12T06:53:00;55.25;;;8.35;;
52067;SDS011;60237;52.338;21.228;2023-02-12T06:55:27;43.15;;;7.07;;
52067;SDS011;60237;52.338;21.228;2023-02-12T06:57:53;65.20;;;7.38;;
52067;SDS011;60237;52.338;21.228;2023-02-12T07:00:20;39.47;;;6.40;;
52067;SDS011;60237;52.338;21.228;2023-02-12T07:02:56;63.97;;;9.50;;
52067;SDS011;60237;52.338;21.228;2023-02-12T07:05:23;64.05;;;9.57;;
52067;SDS011;60237;52.338;21.228;2023-02-12T07:07:49;46.10;;;8.13;;
52067;SDS011;60237;52.338;21.228;2023-02-12T07:10:16;57.97;;;8.73;;
52067;SDS011;60237;52.338;21.228;2023-02-12T07:12:43;53.60;;;8.88;;
52067;SDS011;60237;52.338;21.228;2023-02-12T07:15:09;48.65;;;8.68;;
52067;SDS011;60237;52.338;21.228;2023-02-12T07:17:36;52.22;;;10.35;;
52067;SDS011;60237;52.338;21.228;2023-02-12T07:20:02;56.70;;;11.27;;
52067;SDS011;60237;52.338;21.228;2023-02-12T07:22:29;45.22;;;10.98;;
52067;SDS011;60237;52.338;21.228;2023-02-12T07:24:55;67.15;;;12.40;;
52067;SDS011;60237;52.338;21.228;2023-02-12T07:27:22;58.60;;;11.98;;
52067;SDS011;60237;52.338;21.228;2023-02-12T07:29:48;48.28;;;10.15;;
52067;SDS011;60237;52.338;21.228;2023-02-12T07:32:15;41.45;;;8.48;;
52067;SDS011;60237;52.338;21.228;2023-02-12T07:34:41;62.10;;;11.43;;
52067;SDS011;60237;52.338;21.228;2023-02-12T07:37:08;72.97;;;12.90;;
52067;SDS011;60237;52.338;21.228;2023-02-12T07:39:34;42.53;;;13.68;;
52067;SDS011;60237;52.338;21.228;2023-02-12T07:42:01;65.10;;;15.52;;
52067;SDS011;60237;52.338;21.228;2023-02-12T07:44:27;54.53;;;12.35;;
52067;SDS011;60237;52.338;21.228;2023-02-12T07:46:54;60.20;;;11.10;;
52067;SDS011;60237;52.338;21.228;2023-02-12T07:49:21;56.95;;;6.50;;
52067;SDS011;60237;52.338;21.228;2023-02-12T07:51:47;38.78;;;5.53;;
52067;SDS011;60237;52.338;21.228;2023-02-12T07:54:14;40.75;;;6.07;;
52067;SDS011;60237;52.338;21.228;2023-02-12T07:56:41;79.20;;;8.27;;
52067;SDS011;60237;52.338;21.228;2023-02-12T07:59:10;35.85;;;5.30;;
52067;SDS011;60237;52.338;21.228;2023-02-12T08:01:38;28.55;;;4.32;;
52067;SDS011;60237;52.338;21.228;2023-02-12T08:04:05;74.72;;;7.88;;
52067;SDS011;60237;52.338;21.228;2023-02-12T08:06:37;35.30;;;4.03;;
52067;SDS011;60237;52.338;21.228;2023-02-12T08:09:05;60.22;;;5.72;;
52067;SDS011;60237;52.338;21.228;2023-02-12T08:11:32;32.42;;;3.85;;
52067;SDS011;60237;52.338;21.228;2023-02-12T08:13:59;32.22;;;3.47;;
52067;SDS011;60237;52.338;21.228;2023-02-12T08:16:26;35.13;;;4.10;;
52067;SDS011;60237;52.338;21.228;2023-02-12T08:18:53;59.90;;;5.72;;
52067;SDS011;60237;52.338;21.228;2023-02-12T08:21:21;31.02;;;3.28;;
52067;SDS011;60237;52.338;21.228;2023-02-12T08:23:48;48.55;;;4.75;;
52067;SDS011;60237;52.338;21.228;2023-02-12T08:28:45;37.60;;;3.97;;
52067;SDS011;60237;52.338;21.228;2023-02-12T08:31:15;58.83;;;5.68;;
52067;SDS011;60237;52.338;21.228;2023-02-12T08:33:43;36.75;;;4.80;;
52067;SDS011;60237;52.338;21.228;2023-02-12T08:36:10;29.70;;;4.10;;
52067;SDS011;60237;52.338;21.228;2023-02-12T08:38:37;47.60;;;5.78;;
52067;SDS011;60237;52.338;21.228;2023-02-12T08:41:05;51.58;;;5.63;;
52067;SDS011;60237;52.338;21.228;2023-02-12T08:43:32;40.47;;;4.53;;
52067;SDS011;60237;52.338;21.228;2023-02-12T08:46:03;35.90;;;6.05;;
52067;SDS011;60237;52.338;21.228;2023-02-12T08:48:30;39.72;;;4.65;;
52067;SDS011;60237;52.338;21.228;2023-02-12T08:51:01;49.58;;;6.05;;
52067;SDS011;60237;52.338;21.228;2023-02-12T08:53:28;41.33;;;4.65;;
52067;SDS011;60237;52.338;21.228;2023-02-12T08:55:54;32.03;;;4.50;;
52067;SDS011;60237;52.338;21.228;2023-02-12T08:58:21;38.05;;;4.65;;
52067;SDS011;60237;52.338;21.228;2023-02-12T09:00:48;48.78;;;5.60;;
52067;SDS011;60237;52.338;21.228;2023-02-12T09:03:14;42.92;;;8.40;;
52067;SDS011;60237;52.338;21.228;2023-02-12T09:05:41;36.67;;;5.35;;
52067;SDS011;60237;52.338;21.228;2023-02-12T09:08:07;29.30;;;4.40;;
52067;SDS011;60237;52.338;21.228;2023-02-12T09:10:37;33.55;;;4.25;;
52067;SDS011;60237;52.338;21.228;2023-02-12T09:13:04;48.33;;;5.43;;
52067;SDS011;60237;52.338;21.228;2023-02-12T09:15:35;33.28;;;4.32;;
52067;SDS011;60237;52.338;21.228;2023-02-12T09:18:01;17.80;;;2.97;;
52067;SDS011;60237;52.338;21.228;2023-02-12T09:20:29;26.08;;;3.88;;
52067;SDS011;60237;52.338;21.228;2023-02-12T09:22:59;47.65;;;5.57;;
52067;SDS011;60237;52.338;21.228;2023-02-12T09:25:25;44.30;;;6.00;;
52067;SDS011;60237;52.338;21.228;2023-02-12T09:27:52;62.05;;;6.43;;
52067;SDS011;60237;52.338;21.228;2023-02-12T09:30:18;51.17;;;7.47;;
52067;SDS011;60237;52.338;21.228;2023-02-12T09:32:45;41.92;;;5.65;;
52067;SDS011;60237;52.338;21.228;2023-02-12T09:35:11;47.88;;;6.85;;
52067;SDS011;60237;52.338;21.228;2023-02-12T09:37:38;38.97;;;6.00;;
52067;SDS011;60237;52.338;21.228;2023-02-12T09:40:15;60.67;;;7.25;;
52067;SDS011;60237;52.338;21.228;2023-02-12T09:42:55;35.97;;;5.13;;
52067;SDS011;60237;52.338;21.228;2023-02-12T09:45:25;29.85;;;4.55;;
52067;SDS011;60237;52.338;21.228;2023-02-12T09:48:17;33.40;;;4.68;;
52067;SDS011;60237;52.338;21.228;2023-02-12T09:53:15;36.53;;;4.13;;
52067;SDS011;60237;52.338;21.228;2023-02-12T09:55:42;50.45;;;6.07;;
52067;SDS011;60237;52.338;21.228;2023-02-12T09:58:14;52.30;;;5.97;;
52067;SDS011;60237;52.338;21.228;2023-02-12T10:00:42;37.58;;;4.38;;
52067;SDS011;60237;52.338;21.228;2023-02-12T10:03:14;36.65;;;4.15;;
52067;SDS011;60237;52.338;21.228;2023-02-12T10:05:46;40.35;;;4.45;;
52067;SDS011;60237;52.338;21.228;2023-02-12T10:08:21;58.70;;;6.18;;
52067;SDS011;60237;52.338;21.228;2023-02-12T10:11:00;40.17;;;4.55;;
52067;SDS011;60237;52.338;21.228;2023-02-12T10:13:38;29.65;;;3.60;;
52067;SDS011;60237;52.338;21.228;2023-02-12T10:16:25;43.20;;;4.93;;
52067;SDS011;60237;52.338;21.228;2023-02-12T10:19:00;48.85;;;5.32;;
52067;SDS011;60237;52.338;21.228;2023-02-12T10:21:32;49.00;;;5.45;;
52067;SDS011;60237;52.338;21.228;2023-02-12T10:26:49;39.22;;;4.88;;
52067;SDS011;60237;52.338;21.228;2023-02-12T10:29:21;56.30;;;6.40;;
52067;SDS011;60237;52.338;21.228;2023-02-12T10:31:52;39.28;;;5.30;;
52067;SDS011;60237;52.338;21.228;2023-02-12T10:34:21;43.13;;;5.40;;
52067;SDS011;60237;52.338;21.228;2023-02-12T10:36:49;37.92;;;5.20;;
52067;SDS011;60237;52.338;21.228;2023-02-12T10:39:23;38.33;;;4.63;;
52067;SDS011;60237;52.338;21.228;2023-02-12T10:41:57;60.50;;;6.35;;
52067;SDS011;60237;52.338;21.228;2023-02-12T10:44:26;46.13;;;5.40;;
52067;SDS011;60237;52.338;21.228;2023-02-12T10:46:53;43.03;;;5.00;;
52067;SDS011;60237;52.338;21.228;2023-02-12T10:49:19;66.95;;;7.20;;
52067;SDS011;60237;52.338;21.228;2023-02-12T10:54:44;60.55;;;7.22;;
52067;SDS011;60237;52.338;21.228;2023-02-12T10:57:29;55.95;;;7.38;;
52067;SDS011;60237;52.338;21.228;2023-02-12T10:59:58;47.88;;;6.28;;
52067;SDS011;60237;52.338;21.228;2023-02-12T11:02:40;44.95;;;6.35;;
52067;SDS011;60237;52.338;21.228;2023-02-12T11:05:24;33.78;;;5.78;;
52067;SDS011;60237;52.338;21.228;2023-02-12T11:07:51;38.58;;;5.80;;
52067;SDS011;60237;52.338;21.228;2023-02-12T11:15:21;42.45;;;6.47;;
52067;SDS011;60237;52.338;21.228;2023-02-12T11:17:59;54.67;;;9.15;;
52067;SDS011;60237;52.338;21.228;2023-02-12T11:25:20;57.15;;;7.82;;
52067;SDS011;60237;52.338;21.228;2023-02-12T11:27:57;46.65;;;7.18;;
52067;SDS011;60237;52.338;21.228;2023-02-12T11:30:24;49.30;;;7.60;;
52067;SDS011;60237;52.338;21.228;2023-02-12T11:32:51;50.35;;;7.43;;
52067;SDS011;60237;52.338;21.228;2023-02-12T11:35:19;35.95;;;6.40;;
52067;SDS011;60237;52.338;21.228;2023-02-12T11:38:00;35.60;;;6.00;;
52067;SDS011;60237;52.338;21.228;2023-02-12T11:40:28;38.83;;;6.00;;
52067;SDS011;60237;52.338;21.228;2023-02-12T11:42:56;58.83;;;7.50;;
52067;SDS011;60237;52.338;21.228;2023-02-12T11:45:33;39.53;;;7.13;;
52067;SDS011;60237;52.338;21.228;2023-02-12T11:48:00;43.05;;;7.03;;
52067;SDS011;60237;52.338;21.228;2023-02-12T11:50:30;39.28;;;6.72;;
52067;SDS011;60237;52.338;21.228;2023-02-12T11:52:59;51.97;;;7.55;;
52067;SDS011;60237;52.338;21.228;2023-02-12T11:55:30;48.85;;;8.00;;
52067;SDS011;60237;52.338;21.228;2023-02-12T11:58:03;41.55;;;7.78;;
52067;SDS011;60237;52.338;21.228;2023-02-12T12:00:36;34.00;;;6.40;;
52067;SDS011;60237;52.338;21.228;2023-02-12T12:03:11;58.50;;;7.97;;
52067;SDS011;60237;52.338;21.228;2023-02-12T12:05:43;36.72;;;6.15;;
52067;SDS011;60237;52.338;21.228;2023-02-12T12:08:16;44.90;;;6.20;;
52067;SDS011;60237;52.338;21.228;2023-02-12T12:10:46;45.17;;;7.10;;
52067;SDS011;60237;52.338;21.228;2023-02-12T12:13:18;55.47;;;6.90;;
52067;SDS011;60237;52.338;21.228;2023-02-12T12:16:02;27.80;;;5.03;;
52067;SDS011;60237;52.338;21.228;2023-02-12T12:18:59;49.90;;;6.57;;
52067;SDS011;60237;52.338;21.228;2023-02-12T12:24:14;29.60;;;4.85;;
52067;SDS011;60237;52.338;21.228;2023-02-12T12:26:43;38.08;;;5.80;;
52067;SDS011;60237;52.338;21.228;2023-02-12T12:31:42;41.33;;;6.38;;
52067;SDS011;60237;52.338;21.228;2023-02-12T12:34:10;47.08;;;7.35;;
52067;SDS011;60237;52.338;21.228;2023-02-12T12:40:24;30.00;;;4.97;;
52067;SDS011;60237;52.338;21.228;2023-02-12T12:54:58;48.50;;;7.82;;
52067;SDS011;60237;52.338;21.228;2023-02-12T12:57:34;54.97;;;7.53;;
52067;SDS011;60237;52.338;21.228;2023-02-12T13:08:28;34.30;;;6.10;;
52067;SDS011;60237;52.338;21.228;2023-02-12T13:10:59;37.08;;;7.10;;
52067;SDS011;60237;52.338;21.228;2023-02-12T13:13:32;47.88;;;7.65;;
52067;SDS011;60237;52.338;21.228;2023-02-12T13:18:48;51.90;;;8.27;;
52067;SDS011;60237;52.338;21.228;2023-02-12T13:23:45;31.77;;;5.88;;
52067;SDS011;60237;52.338;21.228;2023-02-12T13:28:45;38.78;;;6.78;;
52067;SDS011;60237;52.338;21.228;2023-02-12T13:31:15;66.47;;;9.45;;
52067;SDS011;60237;52.338;21.228;2023-02-12T13:33:59;31.50;;;5.95;;
52067;SDS011;60237;52.338;21.228;2023-02-12T13:36:26;46.28;;;7.72;;
52067;SDS011;60237;52.338;21.228;2023-02-12T13:39:00;71.45;;;8.25;;
52067;SDS011;60237;52.338;21.228;2023-02-12T13:41:30;32.45;;;5.53;;
52067;SDS011;60237;52.338;21.228;2023-02-12T13:44:09;54.13;;;6.68;;
52067;SDS011;60237;52.338;21.228;2023-02-12T13:46:43;54.70;;;7.40;;
52067;SDS011;60237;52.338;21.228;2023-02-12T13:51:43;32.17;;;6.05;;
52067;SDS011;60237;52.338;21.228;2023-02-12T13:54:22;39.58;;;6.45;;
52067;SDS011;60237;52.338;21.228;2023-02-12T13:56:55;36.72;;;6.35;;
52067;SDS011;60237;52.338;21.228;2023-02-12T14:04:44;31.27;;;5.70;;
52067;SDS011;60237;52.338;21.228;2023-02-12T14:07:14;57.97;;;8.00;;
52067;SDS011;60237;52.338;21.228;2023-02-12T14:09:42;36.45;;;6.75;;
52067;SDS011;60237;52.338;21.228;2023-02-12T14:14:37;77.13;;;9.90;;
52067;SDS011;60237;52.338;21.228;2023-02-12T14:24:52;68.78;;;11.23;;
52067;SDS011;60237;52.338;21.228;2023-02-12T14:27:21;45.25;;;10.77;;
52067;SDS011;60237;52.338;21.228;2023-02-12T14:30:01;56.25;;;9.75;;
52067;SDS011;60237;52.338;21.228;2023-02-12T14:37:52;39.30;;;7.80;;
52067;SDS011;60237;52.338;21.228;2023-02-12T14:40:29;62.25;;;8.82;;
52067;SDS011;60237;52.338;21.228;2023-02-12T14:42:56;45.70;;;8.02;;
52067;SDS011;60237;52.338;21.228;2023-02-12T14:45:40;45.67;;;8.38;;
52067;SDS011;60237;52.338;21.228;2023-02-12T14:48:07;65.60;;;10.43;;
52067;SDS011;60237;52.338;21.228;2023-02-12T14:50:53;66.18;;;10.77;;
52067;SDS011;60237;52.338;21.228;2023-02-12T14:53:22;75.47;;;10.93;;
52067;SDS011;60237;52.338;21.228;2023-02-12T14:55:51;43.78;;;8.23;;
52067;SDS011;60237;52.338;21.228;2023-02-12T14:58:18;89.72;;;11.52;;
52067;SDS011;60237;52.338;21.228;2023-02-12T15:00:46;76.18;;;10.38;;
52067;SDS011;60237;52.338;21.228;2023-02-12T15:08:27;41.15;;;8.40;;
52067;SDS011;60237;52.338;21.228;2023-02-12T15:10:58;60.22;;;9.85;;
52067;SDS011;60237;52.338;21.228;2023-02-12T15:13:29;64.10;;;9.98;;
52067;SDS011;60237;52.338;21.228;2023-02-12T15:18:27;62.38;;;10.05;;
52067;SDS011;60237;52.338;21.228;2023-02-12T15:20:56;49.75;;;8.90;;
52067;SDS011;60237;52.338;21.228;2023-02-12T15:23:35;59.05;;;10.73;;
52067;SDS011;60237;52.338;21.228;2023-02-12T15:26:02;65.28;;;11.00;;
52067;SDS011;60237;52.338;21.228;2023-02-12T15:28:29;46.60;;;9.75;;
52067;SDS011;60237;52.338;21.228;2023-02-12T15:30:59;66.97;;;11.73;;
52067;SDS011;60237;52.338;21.228;2023-02-12T15:33:31;34.42;;;9.85;;
52067;SDS011;60237;52.338;21.228;2023-02-12T15:35:58;47.75;;;10.60;;
52067;SDS011;60237;52.338;21.228;2023-02-12T15:38:39;61.80;;;11.48;;
52067;SDS011;60237;52.338;21.228;2023-02-12T15:41:07;58.30;;;12.13;;
52067;SDS011;60237;52.338;21.228;2023-02-12T15:43:38;53.45;;;12.27;;
52067;SDS011;60237;52.338;21.228;2023-02-12T15:46:05;59.05;;;15.02;;
52067;SDS011;60237;52.338;21.228;2023-02-12T15:48:33;48.05;;;12.10;;
52067;SDS011;60237;52.338;21.228;2023-02-12T15:53:33;55.97;;;12.13;;
52067;SDS011;60237;52.338;21.228;2023-02-12T15:55:59;79.05;;;16.08;;
52067;SDS011;60237;52.338;21.228;2023-02-12T15:58:32;88.30;;;15.65;;
52067;SDS011;60237;52.338;21.228;2023-02-12T16:01:03;56.28;;;12.82;;
52067;SDS011;60237;52.338;21.228;2023-02-12T16:03:34;49.00;;;13.32;;
52067;SDS011;60237;52.338;21.228;2023-02-12T16:06:02;50.58;;;14.23;;
52067;SDS011;60237;52.338;21.228;2023-02-12T16:08:30;50.83;;;13.80;;
52067;SDS011;60237;52.338;21.228;2023-02-12T16:10:57;63.78;;;15.85;;
52067;SDS011;60237;52.338;21.228;2023-02-12T16:13:33;89.90;;;19.38;;
52067;SDS011;60237;52.338;21.228;2023-02-12T16:16:07;63.75;;;17.63;;
52067;SDS011;60237;52.338;21.228;2023-02-12T16:18:40;64.20;;;17.98;;
52067;SDS011;60237;52.338;21.228;2023-02-12T16:21:19;58.20;;;18.23;;
52067;SDS011;60237;52.338;21.228;2023-02-12T16:23:47;108.03;;;22.70;;
52067;SDS011;60237;52.338;21.228;2023-02-12T16:26:16;73.43;;;19.83;;
52067;SDS011;60237;52.338;21.228;2023-02-12T16:28:45;73.43;;;18.67;;
52067;SDS011;60237;52.338;21.228;2023-02-12T16:31:12;90.60;;;19.42;;
52067;SDS011;60237;52.338;21.228;2023-02-12T16:41:27;52.35;;;16.25;;
52067;SDS011;60237;52.338;21.228;2023-02-12T16:46:25;78.40;;;18.70;;
52067;SDS011;60237;52.338;21.228;2023-02-12T16:48:52;96.30;;;19.75;;
52067;SDS011;60237;52.338;21.228;2023-02-12T16:51:23;71.32;;;18.73;;
52067;SDS011;60237;52.338;21.228;2023-02-12T16:53:51;82.05;;;19.27;;
52067;SDS011;60237;52.338;21.228;2023-02-12T16:56:20;89.03;;;20.50;;
52067;SDS011;60237;52.338;21.228;2023-02-12T16:58:48;84.20;;;21.13;;
52067;SDS011;60237;52.338;21.228;2023-02-12T17:01:16;97.05;;;24.73;;